createdAt,value
2018-06-19T00:02:26.382Z,4.40
2018-06-19T00:07:31.446Z,6.33
2018-06-19T00:12:36.260Z,3.90
2018-06-19T00:17:41.334Z,3.90
2018-06-19T00:22:46.179Z,4.08
2018-06-19T00:27:50.972Z,4.37
2018-06-19T00:32:56.055Z,4.50
2018-06-19T00:38:00.940Z,2.70
2018-06-19T00:43:05.808Z,3.08
2018-06-19T00:48:10.995Z,5.45
2018-06-19T00:53:16.272Z,5.85
2018-06-19T00:58:20.955Z,3.90
2018-06-19T01:03:25.749Z,3.45
2018-06-19T01:08:30.674Z,4.87
2018-06-19T01:13:35.713Z,3.08
2018-06-19T01:18:41.452Z,3.35
2018-06-19T01:23:46.209Z,3.65
2018-06-19T01:28:51.667Z,3.42
2018-06-19T01:33:56.542Z,2.90
2018-06-19T01:39:01.460Z,5.20
2018-06-19T01:44:06.281Z,3.55
2018-06-19T01:49:11.033Z,4.65
2018-06-19T01:54:15.695Z,10.15
2018-06-19T01:59:20.408Z,4.05
2018-06-19T02:04:25.028Z,4.37
2018-06-19T02:09:29.898Z,6.03
2018-06-19T02:14:34.756Z,6.47
2018-06-19T02:19:39.608Z,4.25
2018-06-19T02:24:44.417Z,5.50
2018-06-19T02:29:49.309Z,6.20
2018-06-19T02:34:54.133Z,4.62
2018-06-19T02:39:59.044Z,5.45
2018-06-19T02:45:04.515Z,4.67
2018-06-19T02:50:08.760Z,4.05
2018-06-19T02:55:13.602Z,7.90
2018-06-19T03:00:18.626Z,3.77
2018-06-19T03:05:24.213Z,7.05
2018-06-19T03:10:29.136Z,7.67
2018-06-19T03:15:34.325Z,6.15
2018-06-19T03:20:39.545Z,5.40
2018-06-19T03:25:44.516Z,4.28
2018-06-19T03:30:49.129Z,6.17
2018-06-19T03:35:54.133Z,5.15
2018-06-19T03:40:59.008Z,8.30
2018-06-19T03:46:03.901Z,8.05
2018-06-19T03:51:08.684Z,5.12
2018-06-19T03:56:13.602Z,6.37
2018-06-19T04:01:18.861Z,6.12
2018-06-19T04:06:25.766Z,10.58
2018-06-19T04:11:30.781Z,3.85
2018-06-19T04:16:35.484Z,8.88
2018-06-19T04:21:41.169Z,6.85
2018-06-19T04:26:45.887Z,5.08
2018-06-19T04:31:50.672Z,6.60
2018-06-19T04:36:56.296Z,4.87
2018-06-19T04:42:01.306Z,5.92
2018-06-19T04:47:06.660Z,7.92
2018-06-19T04:52:11.976Z,5.03
2018-06-19T04:57:16.669Z,5.90
2018-06-19T05:02:21.549Z,5.95
2018-06-19T05:07:26.360Z,6.53
2018-06-19T05:12:31.668Z,4.90
2018-06-19T05:17:36.393Z,5.55
2018-06-19T05:22:41.260Z,6.45
2018-06-19T05:27:46.260Z,6.42
2018-06-19T05:32:51.353Z,4.08
2018-06-19T05:37:56.100Z,7.12
2018-06-19T05:43:01.128Z,5.65
2018-06-19T05:48:06.806Z,4.72
2018-06-19T05:53:11.805Z,5.20
2018-06-19T05:58:16.615Z,6.75
2018-06-19T06:03:21.307Z,4.55
2018-06-19T06:08:26.073Z,4.45
2018-06-19T06:13:30.985Z,6.05
2018-06-19T06:18:36.166Z,6.30
2018-06-19T06:23:40.947Z,5.80
2018-06-19T06:28:46.011Z,5.70
2018-06-19T06:33:51.310Z,4.92
2018-06-19T06:38:56.039Z,5.78
2018-06-19T06:44:01.503Z,4.15
2018-06-19T06:49:06.448Z,6.47
2018-06-19T06:54:11.156Z,5.95
2018-06-19T06:59:18.015Z,7.00
2018-06-19T07:04:22.928Z,6.60
2018-06-19T07:09:27.982Z,4.35
2018-06-19T07:14:32.930Z,8.48
2018-06-19T07:19:38.005Z,7.60
2018-06-19T07:24:42.910Z,6.92
2018-06-19T07:29:50.558Z,6.95
2018-06-19T07:34:56.889Z,6.15
2018-06-19T07:40:01.158Z,5.67
2018-06-19T07:45:05.921Z,7.03
2018-06-19T07:50:10.583Z,3.65
2018-06-19T07:55:15.440Z,4.83
2018-06-19T08:00:20.215Z,6.35
2018-06-19T08:05:24.951Z,5.47
2018-06-19T08:10:30.306Z,8.38
2018-06-19T08:15:44.594Z,5.92
2018-06-19T08:20:51.526Z,6.05
2018-06-19T08:25:56.280Z,3.33
2018-06-19T08:31:10.162Z,5.97
2018-06-19T08:36:16.579Z,5.65
2018-06-19T08:41:21.453Z,3.52
2018-06-19T08:46:32.595Z,4.37
2018-06-19T08:51:39.245Z,2.35
2018-06-19T08:56:46.321Z,4.45
2018-06-19T09:01:50.944Z,4.28
2018-06-19T09:06:56.016Z,5.42
2018-06-19T09:12:00.264Z,7.03
2018-06-19T09:17:04.966Z,3.77
2018-06-19T09:22:09.810Z,3.37
2018-06-19T09:27:14.479Z,5.95
2018-06-19T09:32:19.176Z,5.40
2018-06-19T09:37:24.068Z,5.45
2018-06-19T09:42:28.577Z,4.97
2018-06-19T09:47:33.773Z,3.65
2018-06-19T09:52:38.973Z,3.52
2018-06-19T09:57:43.935Z,4.35
2018-06-19T10:02:48.107Z,3.92
2018-06-19T10:07:52.924Z,3.98
2018-06-19T10:12:57.946Z,7.75
2018-06-19T10:18:02.890Z,2.30
2018-06-19T10:23:07.653Z,3.80
2018-06-19T10:28:12.689Z,2.95
2018-06-19T10:33:18.705Z,2.05
2018-06-19T10:38:26.395Z,1.67
2018-06-19T10:43:31.709Z,1.80
2018-06-19T10:48:36.538Z,1.70
2018-06-19T10:53:41.377Z,3.37
2018-06-19T10:58:46.852Z,2.87
2018-06-19T11:03:54.114Z,5.25
2018-06-19T11:08:59.541Z,5.75
2018-06-19T11:14:04.497Z,6.08
2018-06-19T11:19:10.529Z,3.83
2018-06-19T11:24:15.609Z,4.15
2018-06-19T11:29:20.502Z,2.83
2018-06-19T11:34:26.396Z,4.00
2018-06-19T11:39:31.149Z,3.33
2018-06-19T11:44:36.163Z,2.95
2018-06-19T11:49:40.988Z,6.10
2018-06-19T11:54:45.978Z,5.30
2018-06-19T11:59:51.016Z,2.67
2018-06-19T12:04:55.747Z,1.95
2018-06-19T12:10:01.744Z,1.98
2018-06-19T12:15:06.565Z,1.87
2018-06-19T12:20:11.285Z,2.30
2018-06-19T12:25:18.699Z,4.15
2018-06-19T12:30:23.567Z,2.75
2018-06-19T12:35:28.477Z,3.98
2018-06-19T12:40:33.130Z,2.67
2018-06-19T12:45:38.004Z,2.60
2018-06-19T12:52:01.508Z,1.90
2018-06-19T12:57:06.727Z,2.27
2018-06-19T13:02:11.562Z,2.70
2018-06-19T13:07:18.148Z,2.58
2018-06-19T13:12:35.054Z,1.95
2018-06-19T13:17:52.250Z,2.62
2018-06-19T13:22:57.326Z,1.77
2018-06-19T13:28:02.515Z,2.95
2018-06-19T13:33:07.523Z,2.83
2018-06-19T13:38:12.583Z,2.27
2018-06-19T13:43:33.265Z,3.08
2018-06-19T13:48:46.478Z,1.77
2018-06-19T13:53:52.964Z,2.33
2018-06-19T13:59:06.225Z,2.70
2018-06-19T14:04:17.059Z,2.90
2018-06-19T14:10:34.683Z,2.20
2018-06-19T14:15:43.486Z,4.85
2018-06-19T14:20:49.319Z,3.77
2018-06-19T14:25:54.278Z,2.17
2018-06-19T14:30:59.234Z,4.50
2018-06-19T14:36:03.852Z,2.50
2018-06-19T14:41:08.485Z,3.35
2018-06-19T14:46:13.214Z,1.40
2018-06-19T14:51:20.229Z,1.82
2018-06-19T14:56:25.643Z,1.95
2018-06-19T15:01:30.519Z,2.37
2018-06-19T15:06:35.812Z,1.55
2018-06-19T15:11:46.136Z,1.90
2018-06-19T15:16:51.078Z,3.17
2018-06-19T15:21:56.801Z,2.95
2018-06-19T15:27:05.215Z,2.50
2018-06-19T15:32:10.453Z,1.50
2018-06-19T15:37:15.232Z,3.80
2018-06-19T15:42:20.895Z,2.00
2018-06-19T15:47:26.109Z,2.67
2018-06-19T15:52:31.185Z,1.30
2018-06-19T15:57:36.411Z,3.60
2018-06-19T16:02:41.487Z,2.50
2018-06-19T16:07:51.362Z,2.60
2018-06-19T16:12:56.378Z,1.32
2018-06-19T16:18:00.641Z,2.35
2018-06-19T16:23:08.281Z,1.67
2018-06-19T16:28:12.903Z,4.65
2018-06-19T16:33:17.683Z,2.65
2018-06-19T16:38:23.327Z,2.35
2018-06-19T16:43:28.635Z,1.25
2018-06-19T16:48:33.785Z,2.20
2018-06-19T16:53:39.128Z,2.02
2018-06-19T16:58:44.003Z,1.62
2018-06-19T17:03:48.744Z,2.20
2018-06-19T17:08:53.953Z,4.53
2018-06-19T17:13:58.744Z,1.82
2018-06-19T17:19:03.692Z,2.10
2018-06-19T17:24:08.426Z,1.25
2018-06-19T17:29:13.544Z,5.35
2018-06-19T17:34:18.317Z,2.40
2018-06-19T17:39:23.316Z,2.10
2018-06-19T17:44:28.264Z,1.42
2018-06-19T17:49:32.901Z,1.95
2018-06-19T17:54:38.183Z,1.22
2018-06-19T17:59:43.079Z,1.62
2018-06-19T18:04:47.788Z,1.47
2018-06-19T18:09:52.710Z,1.07
2018-06-19T18:14:57.714Z,3.47
2018-06-19T18:20:03.288Z,3.65
2018-06-19T18:25:08.246Z,2.35
2018-06-19T18:30:13.096Z,1.30
2018-06-19T18:35:17.883Z,1.00
2018-06-19T18:40:31.749Z,4.20
2018-06-19T18:45:37.498Z,2.33
2018-06-19T18:50:42.652Z,1.45
2018-06-19T18:55:47.492Z,3.33
2018-06-19T19:00:51.780Z,1.85
2018-06-19T19:06:05.025Z,2.87
2018-06-19T19:11:27.503Z,1.57
2018-06-19T19:16:37.559Z,1.37
2018-06-19T19:21:44.699Z,1.42
2018-06-19T19:26:54.922Z,2.37
2018-06-19T19:32:00.286Z,1.85
2018-06-19T19:37:12.927Z,1.65
2018-06-19T19:42:24.709Z,2.30
2018-06-19T19:47:34.923Z,3.60
2018-06-19T19:52:39.783Z,5.50
2018-06-19T19:57:49.443Z,3.05
2018-06-19T20:02:54.877Z,1.70
2018-06-19T20:07:59.940Z,1.52
2018-06-19T20:13:04.427Z,1.77
2018-06-19T20:18:09.650Z,2.37
2018-06-19T20:23:14.653Z,2.10
2018-06-19T20:28:19.464Z,1.90
2018-06-19T20:33:24.238Z,1.35
2018-06-19T20:38:29.268Z,1.60
2018-06-19T20:43:34.027Z,2.37
2018-06-19T20:48:43.053Z,3.35
2018-06-19T20:53:48.097Z,2.33
2018-06-19T20:58:53.045Z,2.65
2018-06-19T21:03:58.276Z,3.17
2018-06-19T21:09:04.079Z,2.02
2018-06-19T21:14:09.114Z,3.17
2018-06-19T21:19:19.004Z,3.70
2018-06-19T21:24:23.740Z,3.87
2018-06-19T21:29:28.904Z,2.55
2018-06-19T21:34:33.879Z,2.77
2018-06-19T21:39:38.847Z,1.60
2018-06-19T21:44:43.843Z,2.60
2018-06-19T21:49:48.704Z,3.05
2018-06-19T21:54:53.453Z,1.50
2018-06-19T21:59:58.337Z,2.67
2018-06-19T22:05:04.878Z,2.25
2018-06-19T22:10:12.119Z,1.80
2018-06-19T22:15:17.145Z,2.77
2018-06-19T22:20:22.551Z,2.22
2018-06-19T22:25:27.276Z,4.15
2018-06-19T22:30:32.026Z,3.12
2018-06-19T22:35:36.782Z,4.17
2018-06-19T22:40:41.612Z,2.65
2018-06-19T22:45:46.378Z,3.20
2018-06-19T22:50:51.621Z,2.25
2018-06-19T22:55:56.450Z,3.67
2018-06-19T23:01:05.644Z,2.20
2018-06-19T23:06:13.904Z,2.85
2018-06-19T23:11:18.522Z,3.33
2018-06-19T23:16:23.394Z,2.77
2018-06-19T23:21:28.093Z,4.60
2018-06-19T23:26:32.850Z,3.60
2018-06-19T23:31:38.265Z,3.35
2018-06-19T23:36:43.205Z,4.10
2018-06-19T23:41:52.662Z,4.15
2018-06-19T23:46:58.288Z,3.85
2018-06-19T23:52:03.607Z,2.33
2018-06-19T23:57:09.706Z,3.15
